createdAt,value
2023-03-01T00:04:39.047Z,-0.31
2023-03-01T00:10:03.527Z,-0.90
2023-03-01T00:15:27.677Z,-1.35
2023-03-01T00:20:56.423Z,-1.72
2023-03-01T00:26:26.791Z,-2.02
2023-03-01T00:31:50.734Z,-2.23
2023-03-01T00:37:14.705Z,-2.37
2023-03-01T00:42:39.554Z,-2.47
2023-03-01T00:48:04.184Z,-2.56
2023-03-01T00:53:29.078Z,-2.64
2023-03-01T00:58:53.253Z,-2.70
2023-03-01T01:04:17.476Z,-2.77
2023-03-01T01:09:42.231Z,-2.80
2023-03-01T01:15:07.198Z,-2.86
2023-03-01T01:20:31.300Z,-2.93
2023-03-01T01:25:56.917Z,-2.96
2023-03-01T01:31:24.982Z,-2.99
2023-03-01T01:36:51.148Z,-3.02
2023-03-01T01:42:19.852Z,-2.09
2023-03-01T01:47:50.190Z,1.19
2023-03-01T01:53:20.536Z,3.02
2023-03-01T01:58:48.903Z,3.99
2023-03-01T02:04:13.264Z,4.71
2023-03-01T02:09:37.721Z,5.25
2023-03-01T02:15:01.977Z,4.86
2023-03-01T02:20:39.483Z,2.46
2023-03-01T02:26:10.337Z,0.58
2023-03-01T02:31:44.677Z,-0.73
2023-03-01T02:37:16.136Z,-1.68
2023-03-01T02:42:52.440Z,-2.28
2023-03-01T02:48:16.938Z,-2.73
2023-03-01T02:54:08.643Z,-3.02
2023-03-01T02:59:40.584Z,-3.23
2023-03-01T03:05:22.105Z,-3.38
2023-03-01T03:10:48.690Z,-3.49
2023-03-01T03:16:13.263Z,-3.58
2023-03-01T03:21:37.561Z,-3.69
2023-03-01T03:27:01.664Z,-3.79
2023-03-01T03:32:25.996Z,-3.86
2023-03-01T03:38:04.172Z,-3.91
2023-03-01T03:43:28.947Z,-4.06
2023-03-01T03:48:53.572Z,-4.04
2023-03-01T03:54:18.437Z,-4.04
2023-03-01T03:59:42.816Z,-4.04
2023-03-01T04:05:08.285Z,-4.06
2023-03-01T04:10:39.202Z,-4.07
2023-03-01T04:16:04.242Z,-4.08
2023-03-01T04:21:28.693Z,-4.09
2023-03-01T04:26:52.870Z,-2.93
2023-03-01T04:32:17.871Z,0.33
2023-03-01T04:37:42.977Z,2.24
2023-03-01T04:43:07.820Z,3.21
2023-03-01T04:48:33.249Z,3.92
2023-03-01T04:53:57.225Z,4.36
2023-03-01T04:59:23.786Z,4.47
2023-03-01T05:04:48.491Z,3.74
2023-03-01T05:10:13.191Z,1.30
2023-03-01T05:15:38.513Z,-0.46
2023-03-01T05:21:11.708Z,-1.72
2023-03-01T05:26:35.812Z,-2.57
2023-03-01T05:32:02.623Z,-3.13
2023-03-01T05:37:27.940Z,-3.51
2023-03-01T05:42:58.080Z,-3.77
2023-03-01T05:48:22.478Z,-4.01
2023-03-01T05:53:46.952Z,-4.18
2023-03-01T05:59:12.136Z,-4.31
2023-03-01T06:04:36.289Z,-4.38
2023-03-01T06:10:00.668Z,-4.40
2023-03-01T06:15:25.382Z,-4.41
2023-03-01T06:20:57.613Z,-4.40
2023-03-01T06:26:22.460Z,-4.35
2023-03-01T06:31:47.334Z,-4.26
2023-03-01T06:37:12.199Z,-4.17
2023-03-01T06:42:40.604Z,-4.07
2023-03-01T06:48:08.674Z,-3.97
2023-03-01T06:53:33.428Z,-3.87
2023-03-01T06:58:57.986Z,-3.79
2023-03-01T07:04:21.824Z,-3.68
2023-03-01T07:09:47.518Z,-3.57
2023-03-01T07:15:12.228Z,-2.27
2023-03-01T07:20:37.365Z,1.16
2023-03-01T07:26:02.288Z,3.06
2023-03-01T07:31:29.051Z,4.26
2023-03-01T07:36:53.712Z,5.20
2023-03-01T07:42:18.516Z,5.91
2023-03-01T07:47:42.497Z,6.47
2023-03-01T07:53:06.698Z,6.07
2023-03-01T07:58:31.845Z,3.90
2023-03-01T08:03:56.738Z,2.30
2023-03-01T08:09:21.253Z,1.26
2023-03-01T08:14:45.753Z,0.62
2023-03-01T08:20:13.769Z,0.22
2023-03-01T08:25:37.737Z,0.02
2023-03-01T08:31:02.766Z,-0.05
2023-03-01T08:36:29.779Z,0.01
2023-03-01T08:41:56.637Z,0.14
2023-03-01T08:47:20.953Z,0.29
2023-03-01T08:52:45.108Z,0.42
2023-03-01T08:58:09.318Z,0.59
2023-03-01T09:03:36.285Z,2.00
2023-03-01T09:09:03.042Z,5.18
2023-03-01T09:14:27.212Z,7.03
2023-03-01T09:19:51.373Z,7.94
2023-03-01T09:25:15.860Z,8.61
2023-03-01T09:30:39.931Z,8.04
2023-03-01T09:36:07.371Z,5.75
2023-03-01T09:41:38.839Z,4.13
2023-03-01T09:47:04.521Z,3.20
2023-03-01T09:52:44.095Z,2.75
2023-03-01T09:58:43.302Z,2.55
2023-03-01T10:04:48.925Z,2.42
2023-03-01T10:10:40.388Z,2.40
2023-03-01T10:16:18.984Z,2.44
2023-03-01T10:21:47.128Z,2.53
2023-03-01T10:27:35.328Z,2.62
2023-03-01T10:33:00.218Z,2.69
2023-03-01T10:38:25.867Z,2.79
2023-03-01T10:43:53.012Z,2.94
2023-03-01T10:49:24.503Z,3.06
2023-03-01T10:55:00.964Z,3.20
2023-03-01T11:00:26.926Z,3.24
2023-03-01T11:06:14.416Z,3.32
2023-03-01T11:11:39.256Z,3.44
2023-03-01T11:17:14.196Z,3.57
2023-03-01T11:22:46.940Z,3.67
2023-03-01T11:28:22.908Z,3.75
2023-03-01T11:33:55.151Z,3.84
2023-03-01T11:40:05.137Z,3.93
2023-03-01T11:45:38.079Z,4.17
2023-03-01T11:51:10.616Z,4.43
2023-03-01T11:56:55.790Z,4.66
2023-03-01T12:02:32.213Z,4.86
2023-03-01T12:08:18.163Z,4.89
2023-03-01T12:13:52.260Z,4.96
2023-03-01T12:19:21.124Z,5.08
2023-03-01T12:24:52.176Z,5.26
2023-03-01T12:30:44.876Z,5.43
2023-03-01T12:36:44.919Z,5.67
2023-03-01T12:42:30.384Z,5.84
2023-03-01T12:48:12.603Z,5.92
2023-03-01T12:53:42.599Z,5.98
2023-03-01T12:59:15.655Z,6.20
2023-03-01T13:05:08.063Z,6.30
2023-03-01T13:10:50.576Z,6.42
2023-03-01T13:16:31.457Z,6.54
2023-03-01T13:21:56.242Z,6.87
2023-03-01T13:27:26.421Z,6.89
2023-03-01T13:32:51.231Z,6.82
2023-03-01T13:38:47.942Z,6.89
2023-03-01T13:44:33.744Z,7.14
2023-03-01T13:50:05.785Z,7.32
2023-03-01T13:55:42.144Z,7.22
2023-03-01T14:01:08.679Z,7.28
2023-03-01T14:06:37.022Z,7.24
2023-03-01T14:12:02.100Z,7.56
2023-03-01T14:17:43.178Z,7.94
2023-03-01T14:23:21.497Z,8.27
2023-03-01T14:28:45.922Z,8.15
2023-03-01T14:34:26.538Z,8.23
2023-03-01T14:39:58.023Z,8.41
2023-03-01T14:45:28.021Z,8.81
2023-03-01T14:50:55.822Z,8.86
2023-03-01T14:56:21.877Z,9.19
2023-03-01T15:01:47.465Z,9.52
2023-03-01T15:07:15.113Z,9.56
2023-03-01T15:12:42.528Z,9.71
2023-03-01T15:18:17.111Z,9.66
2023-03-01T15:23:42.042Z,9.72
2023-03-01T15:29:06.385Z,9.55
2023-03-01T15:34:41.372Z,9.56
2023-03-01T15:40:20.763Z,9.72
2023-03-01T15:45:57.304Z,9.73
2023-03-01T15:51:34.861Z,9.56
2023-03-01T15:56:59.583Z,9.50
2023-03-01T16:02:25.722Z,9.41
2023-03-01T16:07:50.157Z,9.30
2023-03-01T16:13:15.026Z,9.16
2023-03-01T16:18:40.391Z,8.99
2023-03-01T16:24:05.683Z,8.79
2023-03-01T16:29:31.296Z,8.52
2023-03-01T16:34:55.924Z,8.19
2023-03-01T16:40:27.816Z,7.88
2023-03-01T16:45:53.084Z,7.56
2023-03-01T16:51:17.916Z,7.24
2023-03-01T16:56:43.377Z,6.91
2023-03-01T17:02:09.452Z,6.59
2023-03-01T17:07:35.890Z,6.28
2023-03-01T17:13:00.141Z,5.98
2023-03-01T17:18:25.467Z,5.69
2023-03-01T17:23:50.780Z,5.42
2023-03-01T17:29:19.434Z,5.14
2023-03-01T17:34:43.538Z,4.87
2023-03-01T17:40:09.166Z,4.63
2023-03-01T17:45:33.649Z,4.40
2023-03-01T17:50:58.847Z,4.18
2023-03-01T17:56:24.846Z,3.98
2023-03-01T18:02:13.558Z,3.74
2023-03-01T18:08:00.568Z,3.45
2023-03-01T18:13:25.455Z,3.27
2023-03-01T18:18:55.197Z,3.12
2023-03-01T18:24:19.546Z,2.97
2023-03-01T18:29:44.841Z,2.84
2023-03-01T18:35:10.276Z,2.70
2023-03-01T18:40:35.038Z,2.51
2023-03-01T18:46:00.341Z,2.36
2023-03-01T18:51:27.146Z,2.19
2023-03-01T18:56:51.702Z,2.04
2023-03-01T19:02:16.927Z,1.89
2023-03-01T19:07:41.746Z,1.74
2023-03-01T19:13:05.647Z,1.62
2023-03-01T19:18:30.011Z,1.52
2023-03-01T19:23:55.627Z,1.36
2023-03-01T19:29:20.052Z,1.23
2023-03-01T19:34:45.042Z,1.16
2023-03-01T19:40:10.464Z,1.00
2023-03-01T19:45:34.858Z,0.77
2023-03-01T19:50:59.212Z,0.59
2023-03-01T19:56:23.278Z,0.42
2023-03-01T20:01:47.280Z,0.38
2023-03-01T20:07:13.074Z,0.34
2023-03-01T20:12:38.828Z,0.28
2023-03-01T20:18:03.560Z,0.23
2023-03-01T20:23:28.750Z,0.16
2023-03-01T20:28:55.457Z,0.10
2023-03-01T20:34:20.100Z,0.02
2023-03-01T20:39:45.258Z,-0.06
2023-03-01T20:45:10.821Z,-0.11
2023-03-01T20:50:34.930Z,-0.20
2023-03-01T20:56:07.350Z,-0.41
2023-03-01T21:01:34.563Z,-0.51
2023-03-01T21:06:58.746Z,0.61
2023-03-01T21:12:23.532Z,3.68
2023-03-01T21:17:48.448Z,5.35
2023-03-01T21:23:12.988Z,6.24
2023-03-01T21:28:38.086Z,6.74
2023-03-01T21:34:05.516Z,7.08
2023-03-01T21:39:30.306Z,6.55
2023-03-01T21:44:54.981Z,4.26
2023-03-01T21:50:20.306Z,2.52
2023-03-01T21:55:48.482Z,1.33
2023-03-01T22:01:15.842Z,0.55
2023-03-01T22:06:42.714Z,-0.01
2023-03-01T22:12:07.133Z,-0.42
2023-03-01T22:17:31.858Z,-0.73
2023-03-01T22:22:56.153Z,-0.99
2023-03-01T22:28:20.592Z,-1.19
2023-03-01T22:33:44.875Z,-1.34
2023-03-01T22:39:08.698Z,-1.45
2023-03-01T22:44:33.342Z,-1.56
2023-03-01T22:49:57.865Z,-1.64
2023-03-01T22:55:22.414Z,-1.71
2023-03-01T23:00:46.780Z,-1.77
2023-03-01T23:06:11.741Z,-1.84
2023-03-01T23:11:35.554Z,-1.90
2023-03-01T23:17:03.640Z,-1.96
2023-03-01T23:22:31.459Z,-2.02
2023-03-01T23:27:56.007Z,-2.08
2023-03-01T23:33:20.200Z,-2.14
2023-03-01T23:38:44.857Z,-2.20
2023-03-01T23:44:09.104Z,-2.29
2023-03-01T23:49:33.292Z,-2.38
2023-03-01T23:54:58.254Z,-2.45
